sensor_id;sensor_type;location;lat;lon;timestamp;P1;durP1;ratioP1;P2;durP2;ratioP2
76896;SDS011;65856;52.178;21.176;2023-03-05T00:01:58;26.30;;;7.40;;
76896;SDS011;65856;52.178;21.176;2023-03-05T00:04:29;18.80;;;6.40;;
76896;SDS011;65856;52.178;21.176;2023-03-05T00:07:01;12.60;;;4.50;;
76896;SDS011;65856;52.178;21.176;2023-03-05T00:09:32;6.90;;;3.30;;
76896;SDS011;65856;52.178;21.176;2023-03-05T00:12:03;8.10;;;3.10;;
76896;SDS011;65856;52.178;21.176;2023-03-05T00:14:35;9.70;;;3.10;;
76896;SDS011;65856;52.178;21.176;2023-03-05T00:17:05;8.30;;;3.30;;
76896;SDS011;65856;52.178;21.176;2023-03-05T00:19:36;11.30;;;3.50;;
76896;SDS011;65856;52.178;21.176;2023-03-05T00:22:07;7.60;;;3.10;;
76896;SDS011;65856;52.178;21.176;2023-03-05T00:24:38;10.70;;;3.30;;
76896;SDS011;65856;52.178;21.176;2023-03-05T00:27:09;7.90;;;2.60;;
76896;SDS011;65856;52.178;21.176;2023-03-05T00:29:40;8.70;;;3.30;;
76896;SDS011;65856;52.178;21.176;2023-03-05T00:32:10;8.60;;;3.00;;
76896;SDS011;65856;52.178;21.176;2023-03-05T00:34:41;8.50;;;3.10;;
76896;SDS011;65856;52.178;21.176;2023-03-05T00:37:12;7.40;;;3.00;;
76896;SDS011;65856;52.178;21.176;2023-03-05T00:39:43;7.60;;;3.00;;
76896;SDS011;65856;52.178;21.176;2023-03-05T00:42:13;11.50;;;3.40;;
76896;SDS011;65856;52.178;21.176;2023-03-05T00:44:44;10.40;;;3.90;;
76896;SDS011;65856;52.178;21.176;2023-03-05T00:47:15;10.10;;;3.20;;
76896;SDS011;65856;52.178;21.176;2023-03-05T00:49:46;9.40;;;3.50;;
76896;SDS011;65856;52.178;21.176;2023-03-05T00:52:17;9.00;;;3.60;;
76896;SDS011;65856;52.178;21.176;2023-03-05T00:54:48;10.30;;;3.40;;
76896;SDS011;65856;52.178;21.176;2023-03-05T00:57:19;9.80;;;3.70;;
76896;SDS011;65856;52.178;21.176;2023-03-05T00:59:50;8.40;;;3.50;;
76896;SDS011;65856;52.178;21.176;2023-03-05T01:02:20;9.30;;;3.30;;
76896;SDS011;65856;52.178;21.176;2023-03-05T01:04:52;10.50;;;3.70;;
76896;SDS011;65856;52.178;21.176;2023-03-05T01:07:23;11.00;;;4.20;;
76896;SDS011;65856;52.178;21.176;2023-03-05T01:09:54;11.20;;;3.60;;
76896;SDS011;65856;52.178;21.176;2023-03-05T01:12:25;13.30;;;4.40;;
76896;SDS011;65856;52.178;21.176;2023-03-05T01:14:56;11.00;;;4.00;;
76896;SDS011;65856;52.178;21.176;2023-03-05T01:17:27;9.70;;;3.50;;
76896;SDS011;65856;52.178;21.176;2023-03-05T01:19:57;10.10;;;3.80;;
76896;SDS011;65856;52.178;21.176;2023-03-05T01:22:29;11.60;;;3.60;;
76896;SDS011;65856;52.178;21.176;2023-03-05T01:25:00;10.30;;;3.70;;
76896;SDS011;65856;52.178;21.176;2023-03-05T01:27:31;10.40;;;3.60;;
76896;SDS011;65856;52.178;21.176;2023-03-05T01:30:02;10.10;;;3.60;;
76896;SDS011;65856;52.178;21.176;2023-03-05T01:32:34;8.40;;;3.70;;
76896;SDS011;65856;52.178;21.176;2023-03-05T01:35:09;9.50;;;3.70;;
76896;SDS011;65856;52.178;21.176;2023-03-05T01:37:44;9.30;;;3.60;;
76896;SDS011;65856;52.178;21.176;2023-03-05T01:40:18;9.80;;;3.70;;
76896;SDS011;65856;52.178;21.176;2023-03-05T01:42:59;10.50;;;3.70;;
76896;SDS011;65856;52.178;21.176;2023-03-05T01:49:00;9.70;;;3.90;;
76896;SDS011;65856;52.178;21.176;2023-03-05T01:51:37;8.50;;;3.50;;
76896;SDS011;65856;52.178;21.176;2023-03-05T01:54:12;11.20;;;3.90;;
76896;SDS011;65856;52.178;21.176;2023-03-05T01:56:46;15.80;;;4.10;;
76896;SDS011;65856;52.178;21.176;2023-03-05T01:59:19;11.40;;;3.70;;
76896;SDS011;65856;52.178;21.176;2023-03-05T02:01:55;10.20;;;3.80;;
76896;SDS011;65856;52.178;21.176;2023-03-05T02:04:33;11.70;;;3.80;;
76896;SDS011;65856;52.178;21.176;2023-03-05T02:07:08;12.10;;;3.90;;
76896;SDS011;65856;52.178;21.176;2023-03-05T02:09:40;12.40;;;4.00;;
76896;SDS011;65856;52.178;21.176;2023-03-05T02:12:12;12.80;;;3.90;;
76896;SDS011;65856;52.178;21.176;2023-03-05T02:14:47;10.90;;;3.80;;
76896;SDS011;65856;52.178;21.176;2023-03-05T02:17:27;13.80;;;4.40;;
76896;SDS011;65856;52.178;21.176;2023-03-05T02:20:05;10.90;;;4.20;;
76896;SDS011;65856;52.178;21.176;2023-03-05T02:22:38;10.40;;;3.80;;
76896;SDS011;65856;52.178;21.176;2023-03-05T02:25:20;14.50;;;4.50;;
76896;SDS011;65856;52.178;21.176;2023-03-05T02:27:57;15.90;;;4.20;;
76896;SDS011;65856;52.178;21.176;2023-03-05T02:30:31;12.50;;;4.40;;
76896;SDS011;65856;52.178;21.176;2023-03-05T02:33:02;10.80;;;3.90;;
76896;SDS011;65856;52.178;21.176;2023-03-05T02:35:33;10.00;;;3.80;;
76896;SDS011;65856;52.178;21.176;2023-03-05T02:38:04;10.80;;;4.10;;
76896;SDS011;65856;52.178;21.176;2023-03-05T02:40:35;10.00;;;4.00;;
76896;SDS011;65856;52.178;21.176;2023-03-05T02:43:06;10.30;;;3.90;;
76896;SDS011;65856;52.178;21.176;2023-03-05T02:45:38;13.80;;;3.80;;
76896;SDS011;65856;52.178;21.176;2023-03-05T02:48:09;12.90;;;4.30;;
76896;SDS011;65856;52.178;21.176;2023-03-05T02:50:41;11.00;;;4.20;;
76896;SDS011;65856;52.178;21.176;2023-03-05T02:53:13;11.00;;;4.40;;
76896;SDS011;65856;52.178;21.176;2023-03-05T02:55:46;9.00;;;4.10;;
76896;SDS011;65856;52.178;21.176;2023-03-05T02:58:19;13.30;;;4.30;;
76896;SDS011;65856;52.178;21.176;2023-03-05T03:00:51;11.90;;;4.30;;
76896;SDS011;65856;52.178;21.176;2023-03-05T03:03:22;8.20;;;3.30;;
76896;SDS011;65856;52.178;21.176;2023-03-05T03:05:52;11.60;;;4.10;;
76896;SDS011;65856;52.178;21.176;2023-03-05T03:08:23;12.50;;;4.30;;
76896;SDS011;65856;52.178;21.176;2023-03-05T03:10:54;10.00;;;3.90;;
76896;SDS011;65856;52.178;21.176;2023-03-05T03:13:31;14.40;;;4.10;;
76896;SDS011;65856;52.178;21.176;2023-03-05T03:16:08;13.40;;;4.30;;
76896;SDS011;65856;52.178;21.176;2023-03-05T03:18:40;10.70;;;3.70;;
76896;SDS011;65856;52.178;21.176;2023-03-05T03:21:19;14.00;;;4.20;;
76896;SDS011;65856;52.178;21.176;2023-03-05T03:23:51;10.30;;;3.90;;
76896;SDS011;65856;52.178;21.176;2023-03-05T03:26:22;13.30;;;4.40;;
76896;SDS011;65856;52.178;21.176;2023-03-05T03:28:53;12.00;;;4.40;;
76896;SDS011;65856;52.178;21.176;2023-03-05T03:31:24;11.70;;;4.10;;
76896;SDS011;65856;52.178;21.176;2023-03-05T03:33:55;14.20;;;4.10;;
76896;SDS011;65856;52.178;21.176;2023-03-05T03:36:25;14.60;;;4.10;;
76896;SDS011;65856;52.178;21.176;2023-03-05T03:38:56;11.50;;;4.10;;
76896;SDS011;65856;52.178;21.176;2023-03-05T03:41:27;11.40;;;4.20;;
76896;SDS011;65856;52.178;21.176;2023-03-05T03:43:58;12.00;;;4.30;;
76896;SDS011;65856;52.178;21.176;2023-03-05T03:48:59;9.30;;;3.60;;
76896;SDS011;65856;52.178;21.176;2023-03-05T03:51:30;9.30;;;3.60;;
76896;SDS011;65856;52.178;21.176;2023-03-05T03:54:01;7.60;;;3.00;;
76896;SDS011;65856;52.178;21.176;2023-03-05T03:56:32;12.90;;;3.90;;
76896;SDS011;65856;52.178;21.176;2023-03-05T03:59:04;9.80;;;3.20;;
76896;SDS011;65856;52.178;21.176;2023-03-05T04:01:35;11.10;;;3.50;;
76896;SDS011;65856;52.178;21.176;2023-03-05T04:04:07;14.20;;;3.80;;
76896;SDS011;65856;52.178;21.176;2023-03-05T04:06:38;14.10;;;3.90;;
76896;SDS011;65856;52.178;21.176;2023-03-05T04:09:09;11.00;;;3.90;;
76896;SDS011;65856;52.178;21.176;2023-03-05T04:11:40;10.90;;;3.80;;
76896;SDS011;65856;52.178;21.176;2023-03-05T04:14:11;9.70;;;3.60;;
76896;SDS011;65856;52.178;21.176;2023-03-05T04:16:42;10.30;;;3.70;;
76896;SDS011;65856;52.178;21.176;2023-03-05T04:19:12;10.80;;;3.50;;
76896;SDS011;65856;52.178;21.176;2023-03-05T04:21:43;13.10;;;3.70;;
76896;SDS011;65856;52.178;21.176;2023-03-05T04:24:14;11.00;;;3.80;;
76896;SDS011;65856;52.178;21.176;2023-03-05T04:26:45;8.70;;;3.30;;
76896;SDS011;65856;52.178;21.176;2023-03-05T04:29:16;10.00;;;3.30;;
76896;SDS011;65856;52.178;21.176;2023-03-05T04:31:47;14.50;;;4.60;;
76896;SDS011;65856;52.178;21.176;2023-03-05T04:34:17;10.00;;;3.70;;
76896;SDS011;65856;52.178;21.176;2023-03-05T04:36:48;14.00;;;3.90;;
76896;SDS011;65856;52.178;21.176;2023-03-05T04:39:19;8.70;;;3.80;;
76896;SDS011;65856;52.178;21.176;2023-03-05T04:41:50;11.10;;;3.60;;
76896;SDS011;65856;52.178;21.176;2023-03-05T04:44:21;10.10;;;3.40;;
76896;SDS011;65856;52.178;21.176;2023-03-05T04:46:52;8.80;;;3.20;;
76896;SDS011;65856;52.178;21.176;2023-03-05T04:49:23;13.70;;;3.50;;
76896;SDS011;65856;52.178;21.176;2023-03-05T04:51:54;9.00;;;3.40;;
76896;SDS011;65856;52.178;21.176;2023-03-05T04:54:25;12.10;;;3.80;;
76896;SDS011;65856;52.178;21.176;2023-03-05T04:56:56;8.30;;;3.30;;
76896;SDS011;65856;52.178;21.176;2023-03-05T04:59:27;9.10;;;3.20;;
76896;SDS011;65856;52.178;21.176;2023-03-05T05:01:58;10.20;;;3.50;;
76896;SDS011;65856;52.178;21.176;2023-03-05T05:04:28;10.30;;;3.60;;
76896;SDS011;65856;52.178;21.176;2023-03-05T05:07:02;11.50;;;3.40;;
76896;SDS011;65856;52.178;21.176;2023-03-05T05:09:35;9.50;;;3.30;;
76896;SDS011;65856;52.178;21.176;2023-03-05T05:12:09;8.20;;;3.40;;
76896;SDS011;65856;52.178;21.176;2023-03-05T05:14:39;11.20;;;3.50;;
76896;SDS011;65856;52.178;21.176;2023-03-05T05:17:10;8.20;;;3.20;;
76896;SDS011;65856;52.178;21.176;2023-03-05T05:19:41;13.60;;;3.30;;
76896;SDS011;65856;52.178;21.176;2023-03-05T05:22:12;9.00;;;3.40;;
76896;SDS011;65856;52.178;21.176;2023-03-05T05:24:43;11.90;;;3.90;;
76896;SDS011;65856;52.178;21.176;2023-03-05T05:27:13;12.20;;;3.80;;
76896;SDS011;65856;52.178;21.176;2023-03-05T05:29:44;12.00;;;3.30;;
76896;SDS011;65856;52.178;21.176;2023-03-05T05:32:17;9.50;;;3.10;;
76896;SDS011;65856;52.178;21.176;2023-03-05T05:37:21;8.70;;;2.80;;
76896;SDS011;65856;52.178;21.176;2023-03-05T05:39:53;11.30;;;3.60;;
76896;SDS011;65856;52.178;21.176;2023-03-05T05:42:24;10.30;;;3.60;;
76896;SDS011;65856;52.178;21.176;2023-03-05T05:44:56;8.20;;;3.50;;
76896;SDS011;65856;52.178;21.176;2023-03-05T05:47:27;12.40;;;3.60;;
76896;SDS011;65856;52.178;21.176;2023-03-05T05:49:59;13.50;;;3.70;;
76896;SDS011;65856;52.178;21.176;2023-03-05T05:52:30;10.80;;;3.50;;
76896;SDS011;65856;52.178;21.176;2023-03-05T05:55:01;10.00;;;3.40;;
76896;SDS011;65856;52.178;21.176;2023-03-05T05:57:32;11.60;;;3.80;;
76896;SDS011;65856;52.178;21.176;2023-03-05T06:00:05;13.70;;;3.80;;
76896;SDS011;65856;52.178;21.176;2023-03-05T06:02:39;9.80;;;3.00;;
76896;SDS011;65856;52.178;21.176;2023-03-05T06:07:42;11.80;;;3.20;;
76896;SDS011;65856;52.178;21.176;2023-03-05T06:10:14;9.00;;;3.20;;
76896;SDS011;65856;52.178;21.176;2023-03-05T06:12:44;9.30;;;3.00;;
76896;SDS011;65856;52.178;21.176;2023-03-05T06:15:15;7.60;;;3.10;;
76896;SDS011;65856;52.178;21.176;2023-03-05T06:17:47;10.00;;;2.90;;
76896;SDS011;65856;52.178;21.176;2023-03-05T06:20:19;7.30;;;3.00;;
76896;SDS011;65856;52.178;21.176;2023-03-05T06:22:50;6.80;;;2.70;;
76896;SDS011;65856;52.178;21.176;2023-03-05T06:25:21;9.70;;;2.90;;
76896;SDS011;65856;52.178;21.176;2023-03-05T06:27:52;9.50;;;2.60;;
76896;SDS011;65856;52.178;21.176;2023-03-05T06:30:23;6.40;;;2.40;;
76896;SDS011;65856;52.178;21.176;2023-03-05T06:32:54;11.00;;;3.00;;
76896;SDS011;65856;52.178;21.176;2023-03-05T06:35:24;6.40;;;2.30;;
76896;SDS011;65856;52.178;21.176;2023-03-05T06:37:55;6.40;;;2.30;;
76896;SDS011;65856;52.178;21.176;2023-03-05T06:40:26;10.90;;;2.40;;
76896;SDS011;65856;52.178;21.176;2023-03-05T06:42:57;6.30;;;2.00;;
76896;SDS011;65856;52.178;21.176;2023-03-05T06:45:29;5.70;;;2.50;;
76896;SDS011;65856;52.178;21.176;2023-03-05T06:48:00;6.00;;;2.40;;
76896;SDS011;65856;52.178;21.176;2023-03-05T06:50:31;6.60;;;2.30;;
76896;SDS011;65856;52.178;21.176;2023-03-05T06:53:03;5.30;;;2.30;;
76896;SDS011;65856;52.178;21.176;2023-03-05T06:55:37;5.20;;;2.40;;
76896;SDS011;65856;52.178;21.176;2023-03-05T06:58:08;4.80;;;2.20;;
76896;SDS011;65856;52.178;21.176;2023-03-05T07:00:39;6.80;;;2.50;;
76896;SDS011;65856;52.178;21.176;2023-03-05T07:03:11;5.90;;;2.50;;
76896;SDS011;65856;52.178;21.176;2023-03-05T07:05:42;5.50;;;2.40;;
76896;SDS011;65856;52.178;21.176;2023-03-05T07:08:14;8.30;;;2.80;;
76896;SDS011;65856;52.178;21.176;2023-03-05T07:10:45;5.80;;;2.10;;
76896;SDS011;65856;52.178;21.176;2023-03-05T07:13:15;5.30;;;2.40;;
76896;SDS011;65856;52.178;21.176;2023-03-05T07:15:46;7.80;;;2.70;;
76896;SDS011;65856;52.178;21.176;2023-03-05T07:18:17;5.80;;;2.20;;
76896;SDS011;65856;52.178;21.176;2023-03-05T07:20:48;5.00;;;2.20;;
76896;SDS011;65856;52.178;21.176;2023-03-05T07:23:19;7.50;;;2.30;;
76896;SDS011;65856;52.178;21.176;2023-03-05T07:25:50;11.60;;;3.00;;
76896;SDS011;65856;52.178;21.176;2023-03-05T07:28:20;6.90;;;2.20;;
76896;SDS011;65856;52.178;21.176;2023-03-05T07:30:57;5.70;;;2.30;;
76896;SDS011;65856;52.178;21.176;2023-03-05T07:33:29;7.30;;;2.40;;
76896;SDS011;65856;52.178;21.176;2023-03-05T07:36:00;6.50;;;2.10;;
76896;SDS011;65856;52.178;21.176;2023-03-05T07:38:32;4.50;;;2.30;;
76896;SDS011;65856;52.178;21.176;2023-03-05T07:41:04;5.50;;;2.40;;
76896;SDS011;65856;52.178;21.176;2023-03-05T07:43:37;6.40;;;2.80;;
76896;SDS011;65856;52.178;21.176;2023-03-05T07:48:39;8.50;;;3.00;;
76896;SDS011;65856;52.178;21.176;2023-03-05T07:51:13;8.40;;;3.20;;
76896;SDS011;65856;52.178;21.176;2023-03-05T07:53:46;5.20;;;2.40;;
76896;SDS011;65856;52.178;21.176;2023-03-05T07:56:22;5.90;;;2.60;;
76896;SDS011;65856;52.178;21.176;2023-03-05T07:58:54;8.90;;;2.70;;
76896;SDS011;65856;52.178;21.176;2023-03-05T08:01:25;7.40;;;2.70;;
76896;SDS011;65856;52.178;21.176;2023-03-05T08:03:55;7.30;;;2.90;;
76896;SDS011;65856;52.178;21.176;2023-03-05T08:06:27;6.20;;;2.30;;
76896;SDS011;65856;52.178;21.176;2023-03-05T08:11:28;2.90;;;1.60;;
76896;SDS011;65856;52.178;21.176;2023-03-05T08:13:59;6.60;;;2.30;;
76896;SDS011;65856;52.178;21.176;2023-03-05T08:16:31;7.20;;;2.50;;
76896;SDS011;65856;52.178;21.176;2023-03-05T08:19:02;8.30;;;2.50;;
76896;SDS011;65856;52.178;21.176;2023-03-05T08:21:35;4.30;;;2.00;;
76896;SDS011;65856;52.178;21.176;2023-03-05T08:24:08;5.20;;;2.00;;
76896;SDS011;65856;52.178;21.176;2023-03-05T08:26:40;7.00;;;2.30;;
76896;SDS011;65856;52.178;21.176;2023-03-05T08:29:13;3.70;;;1.90;;
76896;SDS011;65856;52.178;21.176;2023-03-05T08:31:46;8.50;;;2.80;;
76896;SDS011;65856;52.178;21.176;2023-03-05T08:34:18;7.40;;;2.80;;
76896;SDS011;65856;52.178;21.176;2023-03-05T08:36:49;13.60;;;5.10;;
76896;SDS011;65856;52.178;21.176;2023-03-05T08:39:19;8.90;;;2.60;;
76896;SDS011;65856;52.178;21.176;2023-03-05T08:41:50;6.30;;;2.50;;
76896;SDS011;65856;52.178;21.176;2023-03-05T08:44:21;6.40;;;2.40;;
76896;SDS011;65856;52.178;21.176;2023-03-05T08:46:52;6.70;;;2.60;;
76896;SDS011;65856;52.178;21.176;2023-03-05T08:49:23;6.70;;;2.50;;
76896;SDS011;65856;52.178;21.176;2023-03-05T08:51:53;5.50;;;2.60;;
76896;SDS011;65856;52.178;21.176;2023-03-05T08:54:24;7.10;;;2.80;;
76896;SDS011;65856;52.178;21.176;2023-03-05T08:56:55;8.20;;;3.50;;
76896;SDS011;65856;52.178;21.176;2023-03-05T08:59:26;8.00;;;2.90;;
76896;SDS011;65856;52.178;21.176;2023-03-05T09:02:00;7.60;;;2.90;;
76896;SDS011;65856;52.178;21.176;2023-03-05T09:04:31;6.80;;;2.60;;
76896;SDS011;65856;52.178;21.176;2023-03-05T09:07:02;8.20;;;3.00;;
76896;SDS011;65856;52.178;21.176;2023-03-05T09:09:33;7.90;;;2.50;;
76896;SDS011;65856;52.178;21.176;2023-03-05T09:12:05;5.50;;;3.00;;
76896;SDS011;65856;52.178;21.176;2023-03-05T09:14:36;8.60;;;2.50;;
76896;SDS011;65856;52.178;21.176;2023-03-05T09:17:07;6.20;;;2.80;;
76896;SDS011;65856;52.178;21.176;2023-03-05T09:19:38;9.60;;;2.60;;
76896;SDS011;65856;52.178;21.176;2023-03-05T09:22:09;7.20;;;2.90;;
76896;SDS011;65856;52.178;21.176;2023-03-05T09:24:40;7.50;;;3.50;;
76896;SDS011;65856;52.178;21.176;2023-03-05T09:27:11;7.00;;;3.40;;
76896;SDS011;65856;52.178;21.176;2023-03-05T09:29:41;9.00;;;3.30;;
76896;SDS011;65856;52.178;21.176;2023-03-05T09:32:12;9.10;;;3.40;;
76896;SDS011;65856;52.178;21.176;2023-03-05T09:34:43;10.80;;;3.50;;
76896;SDS011;65856;52.178;21.176;2023-03-05T09:37:14;12.70;;;4.00;;
76896;SDS011;65856;52.178;21.176;2023-03-05T09:39:45;7.60;;;2.90;;
76896;SDS011;65856;52.178;21.176;2023-03-05T09:42:40;11.60;;;3.70;;
76896;SDS011;65856;52.178;21.176;2023-03-05T09:45:23;6.70;;;3.00;;
76896;SDS011;65856;52.178;21.176;2023-03-05T09:48:03;9.90;;;3.80;;
76896;SDS011;65856;52.178;21.176;2023-03-05T09:50:43;9.90;;;3.80;;
76896;SDS011;65856;52.178;21.176;2023-03-05T09:53:22;8.60;;;3.80;;
76896;SDS011;65856;52.178;21.176;2023-03-05T09:56:02;8.10;;;3.40;;
76896;SDS011;65856;52.178;21.176;2023-03-05T09:58:41;10.30;;;3.70;;
76896;SDS011;65856;52.178;21.176;2023-03-05T10:01:18;8.10;;;3.70;;
76896;SDS011;65856;52.178;21.176;2023-03-05T10:03:57;10.10;;;4.20;;
76896;SDS011;65856;52.178;21.176;2023-03-05T10:06:33;11.20;;;4.40;;
76896;SDS011;65856;52.178;21.176;2023-03-05T10:09:16;9.90;;;3.80;;
76896;SDS011;65856;52.178;21.176;2023-03-05T10:11:58;9.50;;;3.50;;
76896;SDS011;65856;52.178;21.176;2023-03-05T10:14:35;9.50;;;4.30;;
76896;SDS011;65856;52.178;21.176;2023-03-05T10:17:25;10.30;;;4.10;;
76896;SDS011;65856;52.178;21.176;2023-03-05T10:20:28;8.90;;;4.00;;
76896;SDS011;65856;52.178;21.176;2023-03-05T10:23:24;10.30;;;4.10;;
76896;SDS011;65856;52.178;21.176;2023-03-05T10:26:07;10.30;;;4.50;;
76896;SDS011;65856;52.178;21.176;2023-03-05T10:28:50;8.20;;;3.90;;
76896;SDS011;65856;52.178;21.176;2023-03-05T10:31:52;9.70;;;4.20;;
76896;SDS011;65856;52.178;21.176;2023-03-05T10:34:56;13.80;;;4.30;;
76896;SDS011;65856;52.178;21.176;2023-03-05T10:37:53;11.30;;;4.40;;
76896;SDS011;65856;52.178;21.176;2023-03-05T10:40:37;10.80;;;4.70;;
76896;SDS011;65856;52.178;21.176;2023-03-05T10:43:21;11.00;;;4.40;;
76896;SDS011;65856;52.178;21.176;2023-03-05T10:45:57;9.30;;;4.20;;
76896;SDS011;65856;52.178;21.176;2023-03-05T10:48:35;16.70;;;4.80;;
76896;SDS011;65856;52.178;21.176;2023-03-05T10:51:14;11.30;;;4.90;;
76896;SDS011;65856;52.178;21.176;2023-03-05T10:53:52;13.50;;;4.90;;
76896;SDS011;65856;52.178;21.176;2023-03-05T10:56:27;14.20;;;4.90;;
76896;SDS011;65856;52.178;21.176;2023-03-05T10:58:58;12.90;;;4.90;;
76896;SDS011;65856;52.178;21.176;2023-03-05T11:01:32;10.70;;;4.90;;
76896;SDS011;65856;52.178;21.176;2023-03-05T11:04:05;12.50;;;5.60;;
76896;SDS011;65856;52.178;21.176;2023-03-05T11:06:53;12.90;;;5.20;;
76896;SDS011;65856;52.178;21.176;2023-03-05T11:09:25;12.40;;;4.70;;
76896;SDS011;65856;52.178;21.176;2023-03-05T11:12:11;13.70;;;5.00;;
76896;SDS011;65856;52.178;21.176;2023-03-05T11:14:46;12.30;;;5.30;;
76896;SDS011;65856;52.178;21.176;2023-03-05T11:17:34;14.00;;;4.60;;
76896;SDS011;65856;52.178;21.176;2023-03-05T11:20:33;13.70;;;5.40;;
76896;SDS011;65856;52.178;21.176;2023-03-05T11:23:11;12.50;;;4.80;;
76896;SDS011;65856;52.178;21.176;2023-03-05T11:25:53;12.70;;;5.00;;
76896;SDS011;65856;52.178;21.176;2023-03-05T11:28:31;11.50;;;4.60;;
76896;SDS011;65856;52.178;21.176;2023-03-05T11:31:19;10.90;;;4.50;;
76896;SDS011;65856;52.178;21.176;2023-03-05T11:33:57;9.20;;;4.10;;
76896;SDS011;65856;52.178;21.176;2023-03-05T11:36:31;12.70;;;4.70;;
76896;SDS011;65856;52.178;21.176;2023-03-05T11:39:13;8.80;;;4.30;;
76896;SDS011;65856;52.178;21.176;2023-03-05T11:41:49;10.60;;;4.50;;
76896;SDS011;65856;52.178;21.176;2023-03-05T11:44:25;10.60;;;5.00;;
76896;SDS011;65856;52.178;21.176;2023-03-05T11:47:00;13.20;;;5.30;;
76896;SDS011;65856;52.178;21.176;2023-03-05T11:49:33;9.00;;;4.20;;
76896;SDS011;65856;52.178;21.176;2023-03-05T11:52:13;8.70;;;4.30;;
76896;SDS011;65856;52.178;21.176;2023-03-05T11:54:55;8.00;;;3.30;;
76896;SDS011;65856;52.178;21.176;2023-03-05T11:57:35;6.60;;;2.80;;
76896;SDS011;65856;52.178;21.176;2023-03-05T12:00:16;8.70;;;3.10;;
76896;SDS011;65856;52.178;21.176;2023-03-05T12:02:54;8.20;;;3.60;;
76896;SDS011;65856;52.178;21.176;2023-03-05T12:05:27;6.70;;;3.60;;
76896;SDS011;65856;52.178;21.176;2023-03-05T12:08:01;8.70;;;4.00;;
76896;SDS011;65856;52.178;21.176;2023-03-05T12:10:33;8.40;;;3.50;;
76896;SDS011;65856;52.178;21.176;2023-03-05T12:13:10;9.50;;;4.10;;
76896;SDS011;65856;52.178;21.176;2023-03-05T12:15:54;10.10;;;4.00;;
76896;SDS011;65856;52.178;21.176;2023-03-05T12:18:45;10.20;;;4.70;;
76896;SDS011;65856;52.178;21.176;2023-03-05T12:21:28;10.70;;;4.60;;
76896;SDS011;65856;52.178;21.176;2023-03-05T12:24:03;11.10;;;5.00;;
76896;SDS011;65856;52.178;21.176;2023-03-05T12:27:14;11.10;;;4.50;;
76896;SDS011;65856;52.178;21.176;2023-03-05T12:29:59;5.80;;;2.90;;
76896;SDS011;65856;52.178;21.176;2023-03-05T12:33:00;8.00;;;3.30;;
76896;SDS011;65856;52.178;21.176;2023-03-05T12:35:34;7.70;;;3.20;;
76896;SDS011;65856;52.178;21.176;2023-03-05T12:38:17;10.00;;;3.80;;
76896;SDS011;65856;52.178;21.176;2023-03-05T12:44:21;5.60;;;2.70;;
76896;SDS011;65856;52.178;21.176;2023-03-05T12:53:16;5.60;;;2.60;;
76896;SDS011;65856;52.178;21.176;2023-03-05T12:55:52;4.00;;;2.30;;
76896;SDS011;65856;52.178;21.176;2023-03-05T12:58:32;6.80;;;2.70;;
76896;SDS011;65856;52.178;21.176;2023-03-05T13:01:12;6.90;;;2.90;;
76896;SDS011;65856;52.178;21.176;2023-03-05T13:06:27;8.20;;;3.10;;
76896;SDS011;65856;52.178;21.176;2023-03-05T13:08:58;7.10;;;3.40;;
76896;SDS011;65856;52.178;21.176;2023-03-05T13:11:30;9.30;;;3.50;;
76896;SDS011;65856;52.178;21.176;2023-03-05T13:16:34;7.00;;;3.60;;
76896;SDS011;65856;52.178;21.176;2023-03-05T13:19:11;10.00;;;4.40;;
76896;SDS011;65856;52.178;21.176;2023-03-05T13:21:42;9.70;;;4.70;;
76896;SDS011;65856;52.178;21.176;2023-03-05T13:24:16;8.50;;;4.50;;
76896;SDS011;65856;52.178;21.176;2023-03-05T13:26:45;8.90;;;4.20;;
76896;SDS011;65856;52.178;21.176;2023-03-05T13:29:15;9.80;;;5.00;;
76896;SDS011;65856;52.178;21.176;2023-03-05T13:31:45;7.40;;;3.90;;
76896;SDS011;65856;52.178;21.176;2023-03-05T13:34:18;9.80;;;4.40;;
76896;SDS011;65856;52.178;21.176;2023-03-05T13:36:53;9.40;;;4.10;;
76896;SDS011;65856;52.178;21.176;2023-03-05T13:39:26;10.50;;;4.20;;
76896;SDS011;65856;52.178;21.176;2023-03-05T13:42:02;9.80;;;3.50;;
76896;SDS011;65856;52.178;21.176;2023-03-05T13:44:32;8.60;;;4.30;;
76896;SDS011;65856;52.178;21.176;2023-03-05T13:47:16;7.50;;;3.80;;
76896;SDS011;65856;52.178;21.176;2023-03-05T13:49:46;9.90;;;4.10;;
76896;SDS011;65856;52.178;21.176;2023-03-05T13:52:24;8.60;;;3.40;;
76896;SDS011;65856;52.178;21.176;2023-03-05T13:54:55;12.10;;;4.50;;
76896;SDS011;65856;52.178;21.176;2023-03-05T13:57:36;7.90;;;4.00;;
76896;SDS011;65856;52.178;21.176;2023-03-05T14:00:26;7.70;;;3.90;;
76896;SDS011;65856;52.178;21.176;2023-03-05T14:02:59;10.80;;;4.20;;
76896;SDS011;65856;52.178;21.176;2023-03-05T14:05:34;13.60;;;4.20;;
76896;SDS011;65856;52.178;21.176;2023-03-05T14:08:03;9.20;;;3.80;;
76896;SDS011;65856;52.178;21.176;2023-03-05T14:10:35;7.10;;;3.20;;
76896;SDS011;65856;52.178;21.176;2023-03-05T14:13:10;6.90;;;3.10;;
76896;SDS011;65856;52.178;21.176;2023-03-05T14:15:40;7.80;;;3.40;;
76896;SDS011;65856;52.178;21.176;2023-03-05T14:18:28;9.70;;;3.40;;
76896;SDS011;65856;52.178;21.176;2023-03-05T14:21:03;8.50;;;3.40;;
76896;SDS011;65856;52.178;21.176;2023-03-05T14:23:40;9.60;;;3.20;;
76896;SDS011;65856;52.178;21.176;2023-03-05T14:26:31;8.30;;;3.50;;
76896;SDS011;65856;52.178;21.176;2023-03-05T14:29:02;8.10;;;3.40;;
76896;SDS011;65856;52.178;21.176;2023-03-05T14:31:47;9.00;;;3.60;;
76896;SDS011;65856;52.178;21.176;2023-03-05T14:34:21;6.30;;;3.10;;
76896;SDS011;65856;52.178;21.176;2023-03-05T14:36:54;7.60;;;3.60;;
76896;SDS011;65856;52.178;21.176;2023-03-05T14:39:35;9.40;;;4.30;;
76896;SDS011;65856;52.178;21.176;2023-03-05T14:42:26;8.70;;;3.80;;
76896;SDS011;65856;52.178;21.176;2023-03-05T14:44:57;8.00;;;3.70;;
76896;SDS011;65856;52.178;21.176;2023-03-05T14:47:27;12.30;;;4.50;;
76896;SDS011;65856;52.178;21.176;2023-03-05T14:49:55;8.30;;;4.20;;
76896;SDS011;65856;52.178;21.176;2023-03-05T14:52:25;8.90;;;4.20;;
76896;SDS011;65856;52.178;21.176;2023-03-05T14:54:54;8.90;;;4.10;;
76896;SDS011;65856;52.178;21.176;2023-03-05T14:57:25;7.20;;;4.10;;
76896;SDS011;65856;52.178;21.176;2023-03-05T14:59:55;8.80;;;4.00;;
76896;SDS011;65856;52.178;21.176;2023-03-05T15:02:25;10.70;;;4.20;;
76896;SDS011;65856;52.178;21.176;2023-03-05T15:04:53;10.70;;;4.10;;
76896;SDS011;65856;52.178;21.176;2023-03-05T15:07:24;10.20;;;4.70;;
76896;SDS011;65856;52.178;21.176;2023-03-05T15:09:55;11.50;;;4.70;;
76896;SDS011;65856;52.178;21.176;2023-03-05T15:12:25;9.00;;;4.70;;
76896;SDS011;65856;52.178;21.176;2023-03-05T15:14:55;12.10;;;4.90;;
76896;SDS011;65856;52.178;21.176;2023-03-05T15:17:28;12.60;;;4.70;;
76896;SDS011;65856;52.178;21.176;2023-03-05T15:19:59;7.60;;;4.20;;
76896;SDS011;65856;52.178;21.176;2023-03-05T15:22:29;8.50;;;4.40;;
76896;SDS011;65856;52.178;21.176;2023-03-05T15:24:57;10.80;;;4.70;;
76896;SDS011;65856;52.178;21.176;2023-03-05T15:27:25;8.00;;;4.40;;
76896;SDS011;65856;52.178;21.176;2023-03-05T15:29:54;10.20;;;4.50;;
76896;SDS011;65856;52.178;21.176;2023-03-05T15:32:22;9.80;;;4.90;;
76896;SDS011;65856;52.178;21.176;2023-03-05T15:34:52;10.30;;;4.80;;
76896;SDS011;65856;52.178;21.176;2023-03-05T15:37:21;9.80;;;4.90;;
76896;SDS011;65856;52.178;21.176;2023-03-05T15:39:49;9.60;;;5.30;;